sensor_id;sensor_type;location;lat;lon;timestamp;pressure;altitude;pressure_sealevel;temperature;humidity
76297;BME280;65104;52.994;6.552;2022-12-18T00:01:19;102851.22;;;-4.20;93.46
76297;BME280;65104;52.994;6.552;2022-12-18T00:03:46;102851.81;;;-4.22;92.85
76297;BME280;65104;52.994;6.552;2022-12-18T00:06:12;102850.03;;;-4.23;93.36
76297;BME280;65104;52.994;6.552;2022-12-18T00:08:41;102854.53;;;-4.28;92.63
76297;BME280;65104;52.994;6.552;2022-12-18T00:11:08;102856.25;;;-4.42;92.52
76297;BME280;65104;52.994;6.552;2022-12-18T00:13:35;102850.69;;;-4.40;92.97
76297;BME280;65104;52.994;6.552;2022-12-18T00:16:02;102857.16;;;-4.42;92.57
76297;BME280;65104;52.994;6.552;2022-12-18T00:18:29;102850.34;;;-4.43;93.13
76297;BME280;65104;52.994;6.552;2022-12-18T00:21:02;102847.59;;;-4.60;92.61
76297;BME280;65104;52.994;6.552;2022-12-18T00:23:29;102851.00;;;-4.60;92.38
76297;BME280;65104;52.994;6.552;2022-12-18T00:25:59;102845.44;;;-4.64;92.67
76297;BME280;65104;52.994;6.552;2022-12-18T00:28:25;102854.00;;;-4.55;92.61
76297;BME280;65104;52.994;6.552;2022-12-18T00:31:08;102852.84;;;-4.66;93.23
76297;BME280;65104;52.994;6.552;2022-12-18T00:33:36;102854.22;;;-4.61;92.72
76297;BME280;65104;52.994;6.552;2022-12-18T00:36:09;102844.72;;;-4.63;92.70
76297;BME280;65104;52.994;6.552;2022-12-18T00:38:37;102842.94;;;-4.64;92.57
76297;BME280;65104;52.994;6.552;2022-12-18T00:41:03;102841.16;;;-4.65;93.06
76297;BME280;65104;52.994;6.552;2022-12-18T00:43:29;102835.59;;;-4.63;92.72
76297;BME280;65104;52.994;6.552;2022-12-18T00:45:55;102841.34;;;-4.64;93.18
76297;BME280;65104;52.994;6.552;2022-12-18T00:48:21;102841.16;;;-4.65;92.98
76297;BME280;65104;52.994;6.552;2022-12-18T00:50:48;102844.91;;;-4.62;93.17
76297;BME280;65104;52.994;6.552;2022-12-18T00:53:14;102845.44;;;-4.57;92.76
76297;BME280;65104;52.994;6.552;2022-12-18T00:55:41;102847.25;;;-4.63;92.35
76297;BME280;65104;52.994;6.552;2022-12-18T00:58:07;102840.84;;;-4.68;92.95
76297;BME280;65104;52.994;6.552;2022-12-18T01:00:33;102846.22;;;-4.72;92.79
76297;BME280;65104;52.994;6.552;2022-12-18T01:02:59;102838.34;;;-4.68;92.37
76297;BME280;65104;52.994;6.552;2022-12-18T01:05:25;102837.81;;;-4.73;92.58
76297;BME280;65104;52.994;6.552;2022-12-18T01:07:51;102844.13;;;-4.76;92.40
76297;BME280;65104;52.994;6.552;2022-12-18T01:10:17;102838.22;;;-4.77;92.15
76297;BME280;65104;52.994;6.552;2022-12-18T01:12:43;102834.47;;;-4.80;92.89
76297;BME280;65104;52.994;6.552;2022-12-18T01:15:10;102843.63;;;-4.88;92.73
76297;BME280;65104;52.994;6.552;2022-12-18T01:17:36;102828.97;;;-4.92;92.85
76297;BME280;65104;52.994;6.552;2022-12-18T01:20:03;102845.50;;;-5.01;92.51
76297;BME280;65104;52.994;6.552;2022-12-18T01:22:29;102847.78;;;-4.96;92.95
76297;BME280;65104;52.994;6.552;2022-12-18T01:24:54;102862.63;;;-4.97;92.05
76297;BME280;65104;52.994;6.552;2022-12-18T01:27:19;102868.19;;;-5.00;92.38
76297;BME280;65104;52.994;6.552;2022-12-18T01:29:46;102860.19;;;-5.04;93.05
76297;BME280;65104;52.994;6.552;2022-12-18T01:32:12;102870.56;;;-5.01;92.91
76297;BME280;65104;52.994;6.552;2022-12-18T01:34:38;102869.97;;;-4.99;92.77
76297;BME280;65104;52.994;6.552;2022-12-18T01:37:04;102872.47;;;-4.99;92.01
76297;BME280;65104;52.994;6.552;2022-12-18T01:39:32;102875.38;;;-5.03;92.11
76297;BME280;65104;52.994;6.552;2022-12-18T01:42:00;102879.31;;;-5.05;92.73
76297;BME280;65104;52.994;6.552;2022-12-18T01:52:48;102861.44;;;-5.08;92.12
76297;BME280;65104;52.994;6.552;2022-12-18T01:55:19;102858.75;;;-5.09;92.93
76297;BME280;65104;52.994;6.552;2022-12-18T01:57:46;102863.22;;;-5.07;91.87
76297;BME280;65104;52.994;6.552;2022-12-18T02:00:18;102870.72;;;-5.07;91.77
76297;BME280;65104;52.994;6.552;2022-12-18T02:02:45;102875.56;;;-5.08;93.01
76297;BME280;65104;52.994;6.552;2022-12-18T02:05:15;102880.72;;;-5.00;92.75
76297;BME280;65104;52.994;6.552;2022-12-18T02:07:54;102883.47;;;-5.12;92.51
76297;BME280;65104;52.994;6.552;2022-12-18T02:11:02;102889.72;;;-5.16;92.98
76297;BME280;65104;52.994;6.552;2022-12-18T02:13:30;102899.25;;;-5.20;92.74
76297;BME280;65104;52.994;6.552;2022-12-18T02:19:01;102891.00;;;-5.26;92.86
76297;BME280;65104;52.994;6.552;2022-12-18T02:24:49;102872.44;;;-5.28;92.37
76297;BME280;65104;52.994;6.552;2022-12-18T02:27:23;102864.75;;;-5.30;93.09
76297;BME280;65104;52.994;6.552;2022-12-18T02:29:51;102853.47;;;-5.34;93.35
76297;BME280;65104;52.994;6.552;2022-12-18T02:32:28;102860.09;;;-5.34;92.13
76297;BME280;65104;52.994;6.552;2022-12-18T02:34:56;102848.47;;;-5.34;92.20
76297;BME280;65104;52.994;6.552;2022-12-18T02:37:25;102844.03;;;-5.43;92.60
76297;BME280;65104;52.994;6.552;2022-12-18T02:39:54;102846.34;;;-5.38;92.29
76297;BME280;65104;52.994;6.552;2022-12-18T02:42:23;102851.22;;;-5.46;92.49
76297;BME280;65104;52.994;6.552;2022-12-18T02:44:50;102851.03;;;-5.48;92.32
76297;BME280;65104;52.994;6.552;2022-12-18T02:47:20;102858.16;;;-5.51;92.27
76297;BME280;65104;52.994;6.552;2022-12-18T02:53:11;102857.28;;;-5.58;91.70
76297;BME280;65104;52.994;6.552;2022-12-18T02:56:03;102870.53;;;-5.59;91.54
76297;BME280;65104;52.994;6.552;2022-12-18T02:59:11;102868.56;;;-5.69;91.98
76297;BME280;65104;52.994;6.552;2022-12-18T03:07:05;102847.13;;;-5.67;91.58
76297;BME280;65104;52.994;6.552;2022-12-18T03:09:39;102855.69;;;-5.72;91.51
76297;BME280;65104;52.994;6.552;2022-12-18T03:12:30;102853.03;;;-5.74;90.66
76297;BME280;65104;52.994;6.552;2022-12-18T03:15:09;102856.59;;;-5.79;91.46
76297;BME280;65104;52.994;6.552;2022-12-18T03:17:42;102842.31;;;-5.80;91.10
76297;BME280;65104;52.994;6.552;2022-12-18T03:20:15;102845.00;;;-5.85;90.58
76297;BME280;65104;52.994;6.552;2022-12-18T03:22:44;102848.41;;;-5.85;91.08
76297;BME280;65104;52.994;6.552;2022-12-18T03:25:14;102860.59;;;-5.88;91.55
76297;BME280;65104;52.994;6.552;2022-12-18T03:27:46;102863.47;;;-5.92;90.90
76297;BME280;65104;52.994;6.552;2022-12-18T03:30:14;102856.13;;;-5.97;90.50
76297;BME280;65104;52.994;6.552;2022-12-18T03:33:00;102860.94;;;-5.99;91.55
76297;BME280;65104;52.994;6.552;2022-12-18T03:35:31;102854.19;;;-6.00;90.80
76297;BME280;65104;52.994;6.552;2022-12-18T03:37:59;102850.59;;;-6.09;90.77
76297;BME280;65104;52.994;6.552;2022-12-18T03:46:05;102854.88;;;-6.15;89.96
76297;BME280;65104;52.994;6.552;2022-12-18T03:48:40;102858.97;;;-6.16;91.18
76297;BME280;65104;52.994;6.552;2022-12-18T03:51:14;102859.88;;;-6.15;90.62
76297;BME280;65104;52.994;6.552;2022-12-18T03:54:01;102856.66;;;-6.28;90.21
76297;BME280;65104;52.994;6.552;2022-12-18T03:56:35;102849.16;;;-6.28;91.04
76297;BME280;65104;52.994;6.552;2022-12-18T03:59:04;102849.88;;;-6.22;90.56
76297;BME280;65104;52.994;6.552;2022-12-18T04:01:35;102847.38;;;-6.29;90.28
76297;BME280;65104;52.994;6.552;2022-12-18T04:04:03;102850.59;;;-6.30;90.16
76297;BME280;65104;52.994;6.552;2022-12-18T04:06:30;102839.69;;;-6.31;90.43
76297;BME280;65104;52.994;6.552;2022-12-18T04:08:58;102840.78;;;-6.36;91.06
76297;BME280;65104;52.994;6.552;2022-12-18T04:11:25;102835.78;;;-6.36;90.88
76297;BME280;65104;52.994;6.552;2022-12-18T04:13:55;102829.31;;;-6.34;90.84
76297;BME280;65104;52.994;6.552;2022-12-18T04:16:21;102832.53;;;-6.35;90.00
76297;BME280;65104;52.994;6.552;2022-12-18T04:18:47;102827.00;;;-6.32;90.20
76297;BME280;65104;52.994;6.552;2022-12-18T04:21:13;102822.72;;;-6.40;90.37
76297;BME280;65104;52.994;6.552;2022-12-18T04:23:39;102819.88;;;-6.36;90.24
76297;BME280;65104;52.994;6.552;2022-12-18T04:26:05;102827.34;;;-6.44;89.94
76297;BME280;65104;52.994;6.552;2022-12-18T04:28:31;102835.22;;;-6.48;90.53
76297;BME280;65104;52.994;6.552;2022-12-18T04:30:57;102843.44;;;-6.49;89.70
76297;BME280;65104;52.994;6.552;2022-12-18T04:33:23;102843.94;;;-6.51;90.06
76297;BME280;65104;52.994;6.552;2022-12-18T04:35:51;102846.09;;;-6.47;89.82
76297;BME280;65104;52.994;6.552;2022-12-18T04:38:17;102855.53;;;-6.52;89.14
76297;BME280;65104;52.994;6.552;2022-12-18T04:40:43;102858.03;;;-6.52;90.19
76297;BME280;65104;52.994;6.552;2022-12-18T04:43:08;102864.84;;;-6.51;89.89
76297;BME280;65104;52.994;6.552;2022-12-18T04:45:34;102859.84;;;-6.51;90.31
76297;BME280;65104;52.994;6.552;2022-12-18T04:48:01;102848.75;;;-6.53;89.43
76297;BME280;65104;52.994;6.552;2022-12-18T04:50:26;102848.75;;;-6.60;89.06
76297;BME280;65104;52.994;6.552;2022-12-18T04:52:52;102841.06;;;-6.61;90.52
76297;BME280;65104;52.994;6.552;2022-12-18T04:55:18;102837.88;;;-6.60;89.55
76297;BME280;65104;52.994;6.552;2022-12-18T04:57:44;102842.72;;;-6.55;89.51
76297;BME280;65104;52.994;6.552;2022-12-18T05:00:09;102849.31;;;-6.55;89.81
76297;BME280;65104;52.994;6.552;2022-12-18T05:02:35;102846.25;;;-6.60;89.07
76297;BME280;65104;52.994;6.552;2022-12-18T05:05:00;102843.03;;;-6.59;89.74
76297;BME280;65104;52.994;6.552;2022-12-18T05:07:26;102837.66;;;-6.62;89.88
76297;BME280;65104;52.994;6.552;2022-12-18T05:09:51;102838.75;;;-6.60;89.76
76297;BME280;65104;52.994;6.552;2022-12-18T05:12:17;102840.03;;;-6.56;88.97
76297;BME280;65104;52.994;6.552;2022-12-18T05:14:42;102853.41;;;-6.56;88.95
76297;BME280;65104;52.994;6.552;2022-12-18T05:17:08;102853.75;;;-6.53;89.66
76297;BME280;65104;52.994;6.552;2022-12-18T05:19:33;102852.16;;;-6.52;89.24
76297;BME280;65104;52.994;6.552;2022-12-18T05:21:59;102858.03;;;-6.52;89.06
76297;BME280;65104;52.994;6.552;2022-12-18T05:24:24;102865.53;;;-6.59;88.94
76297;BME280;65104;52.994;6.552;2022-12-18T05:26:50;102868.94;;;-6.58;88.97
76297;BME280;65104;52.994;6.552;2022-12-18T05:29:15;102863.03;;;-6.59;89.09
76297;BME280;65104;52.994;6.552;2022-12-18T05:31:41;102859.13;;;-6.57;88.83
76297;BME280;65104;52.994;6.552;2022-12-18T05:34:06;102859.44;;;-6.61;89.05
76297;BME280;65104;52.994;6.552;2022-12-18T05:36:32;102852.31;;;-6.65;89.08
76297;BME280;65104;52.994;6.552;2022-12-18T05:38:57;102853.03;;;-6.66;88.63
76297;BME280;65104;52.994;6.552;2022-12-18T05:41:23;102857.84;;;-6.60;88.06
76297;BME280;65104;52.994;6.552;2022-12-18T05:43:48;102863.22;;;-6.57;89.25
76297;BME280;65104;52.994;6.552;2022-12-18T05:46:16;102863.75;;;-6.60;88.50
76297;BME280;65104;52.994;6.552;2022-12-18T05:48:43;102867.84;;;-6.60;88.03
76297;BME280;65104;52.994;6.552;2022-12-18T05:51:16;102871.06;;;-6.61;89.79
76297;BME280;65104;52.994;6.552;2022-12-18T05:53:43;102873.41;;;-6.63;89.04
76297;BME280;65104;52.994;6.552;2022-12-18T05:56:14;102876.94;;;-6.61;88.40
76297;BME280;65104;52.994;6.552;2022-12-18T05:58:40;102870.72;;;-6.57;88.83
76297;BME280;65104;52.994;6.552;2022-12-18T06:01:12;102879.81;;;-6.58;89.00
76297;BME280;65104;52.994;6.552;2022-12-18T06:03:38;102880.91;;;-6.56;88.76
76297;BME280;65104;52.994;6.552;2022-12-18T06:06:11;102894.44;;;-6.61;88.36
76297;BME280;65104;52.994;6.552;2022-12-18T06:08:37;102903.00;;;-6.59;88.44
76297;BME280;65104;52.994;6.552;2022-12-18T06:11:03;102905.13;;;-6.62;89.08
76297;BME280;65104;52.994;6.552;2022-12-18T06:13:28;102911.19;;;-6.67;89.09
76297;BME280;65104;52.994;6.552;2022-12-18T06:15:53;102905.81;;;-6.70;88.84
76297;BME280;65104;52.994;6.552;2022-12-18T06:18:19;102916.69;;;-6.76;87.83
76297;BME280;65104;52.994;6.552;2022-12-18T06:20:44;102917.41;;;-6.77;89.42
76297;BME280;65104;52.994;6.552;2022-12-18T06:23:10;102915.25;;;-6.82;89.31
76297;BME280;65104;52.994;6.552;2022-12-18T06:25:38;102915.59;;;-6.78;88.64
76297;BME280;65104;52.994;6.552;2022-12-18T06:28:03;102911.16;;;-6.81;88.52
76297;BME280;65104;52.994;6.552;2022-12-18T06:30:29;102910.47;;;-6.80;89.98
76297;BME280;65104;52.994;6.552;2022-12-18T06:32:54;102905.06;;;-6.83;88.00
76297;BME280;65104;52.994;6.552;2022-12-18T06:35:20;102900.97;;;-6.90;89.52
76297;BME280;65104;52.994;6.552;2022-12-18T06:37:45;102903.09;;;-6.86;88.16
76297;BME280;65104;52.994;6.552;2022-12-18T06:40:11;102897.91;;;-6.87;89.05
76297;BME280;65104;52.994;6.552;2022-12-18T06:42:37;102893.47;;;-6.90;88.93
76297;BME280;65104;52.994;6.552;2022-12-18T06:45:02;102887.38;;;-6.92;89.43
76297;BME280;65104;52.994;6.552;2022-12-18T06:47:28;102879.69;;;-7.00;89.15
76297;BME280;65104;52.994;6.552;2022-12-18T06:49:53;102890.56;;;-7.00;89.27
76297;BME280;65104;52.994;6.552;2022-12-18T06:52:18;102894.47;;;-7.02;88.83
76297;BME280;65104;52.994;6.552;2022-12-18T06:54:44;102888.78;;;-7.01;89.10
76297;BME280;65104;52.994;6.552;2022-12-18T06:57:10;102885.75;;;-6.98;89.41
76297;BME280;65104;52.994;6.552;2022-12-18T06:59:35;102872.72;;;-7.03;89.97
76297;BME280;65104;52.994;6.552;2022-12-18T07:02:01;102871.81;;;-7.03;89.46
76297;BME280;65104;52.994;6.552;2022-12-18T07:04:29;102868.63;;;-7.02;88.59
76297;BME280;65104;52.994;6.552;2022-12-18T07:06:55;102862.91;;;-7.08;88.78
76297;BME280;65104;52.994;6.552;2022-12-18T07:09:21;102859.69;;;-7.07;89.15
76297;BME280;65104;52.994;6.552;2022-12-18T07:11:46;102861.44;;;-7.13;88.21
76297;BME280;65104;52.994;6.552;2022-12-18T07:14:11;102855.72;;;-7.12;88.24
76297;BME280;65104;52.994;6.552;2022-12-18T07:16:37;102859.31;;;-7.10;89.64
76297;BME280;65104;52.994;6.552;2022-12-18T07:19:02;102845.19;;;-7.17;89.06
76297;BME280;65104;52.994;6.552;2022-12-18T07:21:28;102845.00;;;-7.18;88.33
76297;BME280;65104;52.994;6.552;2022-12-18T07:23:53;102841.75;;;-7.25;89.14
76297;BME280;65104;52.994;6.552;2022-12-18T07:26:20;102844.44;;;-7.23;88.99
76297;BME280;65104;52.994;6.552;2022-12-18T07:28:47;102848.59;;;-7.16;89.30
76297;BME280;65104;52.994;6.552;2022-12-18T07:31:18;102846.63;;;-7.12;89.55
76297;BME280;65104;52.994;6.552;2022-12-18T07:33:44;102832.00;;;-7.16;88.08
76297;BME280;65104;52.994;6.552;2022-12-18T07:36:10;102835.75;;;-7.12;88.00
76297;BME280;65104;52.994;6.552;2022-12-18T07:38:36;102838.44;;;-7.11;88.83
76297;BME280;65104;52.994;6.552;2022-12-18T07:41:03;102833.44;;;-7.11;88.26
76297;BME280;65104;52.994;6.552;2022-12-18T07:43:29;102833.97;;;-7.13;88.36
76297;BME280;65104;52.994;6.552;2022-12-18T07:45:54;102838.97;;;-7.13;87.50
76297;BME280;65104;52.994;6.552;2022-12-18T07:48:20;102846.66;;;-7.05;88.76
76297;BME280;65104;52.994;6.552;2022-12-18T07:50:45;102842.38;;;-7.06;88.87
76297;BME280;65104;52.994;6.552;2022-12-18T07:53:11;102852.53;;;-7.04;88.07
76297;BME280;65104;52.994;6.552;2022-12-18T07:55:36;102848.25;;;-7.05;87.64
76297;BME280;65104;52.994;6.552;2022-12-18T07:58:03;102850.25;;;-6.96;88.22
76297;BME280;65104;52.994;6.552;2022-12-18T08:00:29;102854.53;;;-6.95;87.88
76297;BME280;65104;52.994;6.552;2022-12-18T08:02:55;102863.13;;;-6.86;87.72
76297;BME280;65104;52.994;6.552;2022-12-18T08:05:20;102862.25;;;-6.86;87.68
76297;BME280;65104;52.994;6.552;2022-12-18T08:07:46;102849.06;;;-6.78;87.79
76297;BME280;65104;52.994;6.552;2022-12-18T08:10:12;102842.47;;;-6.77;88.06
76297;BME280;65104;52.994;6.552;2022-12-18T08:12:38;102828.03;;;-6.73;86.88
76297;BME280;65104;52.994;6.552;2022-12-18T08:15:03;102831.63;;;-6.64;86.50
76297;BME280;65104;52.994;6.552;2022-12-18T08:17:29;102825.19;;;-6.62;86.38
76297;BME280;65104;52.994;6.552;2022-12-18T08:19:54;102826.97;;;-6.61;87.34
76297;BME280;65104;52.994;6.552;2022-12-18T08:22:20;102833.94;;;-6.58;86.79
76297;BME280;65104;52.994;6.552;2022-12-18T08:24:45;102826.81;;;-6.55;87.25
76297;BME280;65104;52.994;6.552;2022-12-18T08:27:10;102816.13;;;-6.54;86.74
76297;BME280;65104;52.994;6.552;2022-12-18T08:29:36;102814.16;;;-6.57;86.43
76297;BME280;65104;52.994;6.552;2022-12-18T08:32:02;102811.31;;;-6.46;86.76
76297;BME280;65104;52.994;6.552;2022-12-18T08:34:28;102801.47;;;-6.44;86.90
76297;BME280;65104;52.994;6.552;2022-12-18T08:36:53;102816.13;;;-6.33;87.19
76297;BME280;65104;52.994;6.552;2022-12-18T08:39:19;102815.78;;;-6.29;86.11
76297;BME280;65104;52.994;6.552;2022-12-18T08:41:44;102814.88;;;-6.22;86.49
76297;BME280;65104;52.994;6.552;2022-12-18T08:44:30;102822.38;;;-6.15;85.41
76297;BME280;65104;52.994;6.552;2022-12-18T08:47:05;102817.22;;;-6.10;85.99
76297;BME280;65104;52.994;6.552;2022-12-18T08:49:31;102819.53;;;-6.11;85.54
76297;BME280;65104;52.994;6.552;2022-12-18T08:51:57;102827.72;;;-6.05;85.25
76297;BME280;65104;52.994;6.552;2022-12-18T08:54:23;102832.38;;;-6.01;86.22
76297;BME280;65104;52.994;6.552;2022-12-18T08:56:49;102842.00;;;-5.90;85.11
76297;BME280;65104;52.994;6.552;2022-12-18T08:59:15;102849.13;;;-5.86;85.47
76297;BME280;65104;52.994;6.552;2022-12-18T09:01:41;102838.38;;;-5.78;84.95
76297;BME280;65104;52.994;6.552;2022-12-18T09:04:08;102845.88;;;-5.71;84.20
76297;BME280;65104;52.994;6.552;2022-12-18T09:06:34;102833.34;;;-5.63;84.19
76297;BME280;65104;52.994;6.552;2022-12-18T09:08:59;102837.25;;;-5.51;84.65
76297;BME280;65104;52.994;6.552;2022-12-18T09:11:26;102834.38;;;-5.40;83.85
76297;BME280;65104;52.994;6.552;2022-12-18T09:13:53;102838.84;;;-5.38;83.10
76297;BME280;65104;52.994;6.552;2022-12-18T09:16:19;102829.31;;;-5.26;83.73
76297;BME280;65104;52.994;6.552;2022-12-18T09:18:46;102835.16;;;-5.18;83.01
76297;BME280;65104;52.994;6.552;2022-12-18T09:21:14;102829.59;;;-5.09;83.25
76297;BME280;65104;52.994;6.552;2022-12-18T09:23:40;102838.16;;;-5.07;82.95
76297;BME280;65104;52.994;6.552;2022-12-18T09:26:06;102835.81;;;-4.98;83.27
76297;BME280;65104;52.994;6.552;2022-12-18T09:28:32;102827.94;;;-4.94;82.62
76297;BME280;65104;52.994;6.552;2022-12-18T09:30:58;102821.63;;;-4.91;82.65
76297;BME280;65104;52.994;6.552;2022-12-18T09:33:23;102813.69;;;-4.79;83.57
76297;BME280;65104;52.994;6.552;2022-12-18T09:35:49;102820.78;;;-4.68;83.37
76297;BME280;65104;52.994;6.552;2022-12-18T09:38:18;102819.78;;;-4.55;82.76
76297;BME280;65104;52.994;6.552;2022-12-18T09:40:50;102815.13;;;-4.51;82.34
76297;BME280;65104;52.994;6.552;2022-12-18T09:43:42;102814.91;;;-4.46;82.08
76297;BME280;65104;52.994;6.552;2022-12-18T09:46:16;102814.69;;;-4.40;81.69
76297;BME280;65104;52.994;6.552;2022-12-18T09:48:46;102800.41;;;-4.26;81.89
76297;BME280;65104;52.994;6.552;2022-12-18T09:51:18;102805.47;;;-4.10;82.13
76297;BME280;65104;52.994;6.552;2022-12-18T09:53:50;102811.72;;;-4.06;82.21
76297;BME280;65104;52.994;6.552;2022-12-18T09:56:19;102816.66;;;-3.99;81.18
76297;BME280;65104;52.994;6.552;2022-12-18T09:58:59;102814.19;;;-3.84;81.70
76297;BME280;65104;52.994;6.552;2022-12-18T10:01:27;102811.19;;;-3.88;81.15
76297;BME280;65104;52.994;6.552;2022-12-18T10:03:53;102811.38;;;-3.71;80.53
76297;BME280;65104;52.994;6.552;2022-12-18T10:06:28;102803.69;;;-3.57;80.33
76297;BME280;65104;52.994;6.552;2022-12-18T10:17:37;102766.09;;;-3.48;80.58
76297;BME280;65104;52.994;6.552;2022-12-18T10:22:56;102760.28;;;-3.56;79.87
76297;BME280;65104;52.994;6.552;2022-12-18T10:25:45;102750.72;;;-3.51;79.95
76297;BME280;65104;52.994;6.552;2022-12-18T10:28:15;102749.84;;;-3.52;80.54
76297;BME280;65104;52.994;6.552;2022-12-18T10:30:43;102745.44;;;-3.46;80.34
76297;BME280;65104;52.994;6.552;2022-12-18T10:33:13;102746.06;;;-3.40;79.84
76297;BME280;65104;52.994;6.552;2022-12-18T10:35:41;102746.13;;;-3.31;79.96
76297;BME280;65104;52.994;6.552;2022-12-18T10:40:58;102746.84;;;-3.16;79.24
76297;BME280;65104;52.994;6.552;2022-12-18T10:48:37;102710.13;;;-3.07;78.19
76297;BME280;65104;52.994;6.552;2022-12-18T10:51:06;102701.41;;;-3.02;78.10
76297;BME280;65104;52.994;6.552;2022-12-18T10:53:33;102703.63;;;-3.05;78.20
76297;BME280;65104;52.994;6.552;2022-12-18T10:55:59;102697.44;;;-3.00;78.41
76297;BME280;65104;52.994;6.552;2022-12-18T10:58:34;102688.47;;;-2.89;77.77
76297;BME280;65104;52.994;6.552;2022-12-18T11:01:17;102694.41;;;-2.89;77.65
76297;BME280;65104;52.994;6.552;2022-12-18T11:03:47;102699.72;;;-2.86;77.59
76297;BME280;65104;52.994;6.552;2022-12-18T11:06:24;102703.78;;;-2.79;77.96
76297;BME280;65104;52.994;6.552;2022-12-18T11:11:24;102708.69;;;-2.72;77.09
76297;BME280;65104;52.994;6.552;2022-12-18T11:14:03;102710.19;;;-2.66;77.54
76297;BME280;65104;52.994;6.552;2022-12-18T11:16:33;102706.97;;;-2.56;77.14
76297;BME280;65104;52.994;6.552;2022-12-18T11:21:47;102693.72;;;-2.38;76.06
76297;BME280;65104;52.994;6.552;2022-12-18T11:24:33;102689.56;;;-2.37;74.29
76297;BME280;65104;52.994;6.552;2022-12-18T11:27:02;102690.50;;;-2.28;73.86
76297;BME280;65104;52.994;6.552;2022-12-18T11:38:16;102682.56;;;-2.07;73.75
76297;BME280;65104;52.994;6.552;2022-12-18T11:40:47;102667.88;;;-2.11;74.45
76297;BME280;65104;52.994;6.552;2022-12-18T11:43:28;102669.97;;;-2.15;75.52
76297;BME280;65104;52.994;6.552;2022-12-18T11:46:00;102668.19;;;-2.16;75.65
76297;BME280;65104;52.994;6.552;2022-12-18T11:48:41;102665.22;;;-2.12;76.65
76297;BME280;65104;52.994;6.552;2022-12-18T11:51:19;102656.75;;;-2.13;76.48
76297;BME280;65104;52.994;6.552;2022-12-18T11:53:48;102668.63;;;-2.12;75.98
76297;BME280;65104;52.994;6.552;2022-12-18T11:56:35;102659.28;;;-2.13;75.59
76297;BME280;65104;52.994;6.552;2022-12-18T12:02:23;102639.00;;;-2.06;76.18
76297;BME280;65104;52.994;6.552;2022-12-18T12:04:59;102634.75;;;-2.07;75.93
76297;BME280;65104;52.994;6.552;2022-12-18T12:07:55;102632.22;;;-2.07;76.20
76297;BME280;65104;52.994;6.552;2022-12-18T12:10:28;102617.84;;;-2.08;75.97
76297;BME280;65104;52.994;6.552;2022-12-18T12:16:04;102608.38;;;-2.02;76.10
76297;BME280;65104;52.994;6.552;2022-12-18T12:21:40;102594.31;;;-2.00;75.80
76297;BME280;65104;52.994;6.552;2022-12-18T12:35:09;102558.34;;;-1.99;75.83
76297;BME280;65104;52.994;6.552;2022-12-18T12:37:55;102558.03;;;-2.02;75.74
76297;BME280;65104;52.994;6.552;2022-12-18T12:40:27;102554.94;;;-1.99;75.40
76297;BME280;65104;52.994;6.552;2022-12-18T12:43:01;102544.72;;;-2.01;74.49
76297;BME280;65104;52.994;6.552;2022-12-18T12:45:54;102542.03;;;-1.94;74.77
76297;BME280;65104;52.994;6.552;2022-12-18T12:48:45;102540.38;;;-1.84;74.07
76297;BME280;65104;52.994;6.552;2022-12-18T12:51:24;102541.25;;;-1.75;73.84
76297;BME280;65104;52.994;6.552;2022-12-18T12:53:54;102534.75;;;-1.73;74.13
76297;BME280;65104;52.994;6.552;2022-12-18T12:56:21;102523.19;;;-1.71;74.39
76297;BME280;65104;52.994;6.552;2022-12-18T12:59:11;102523.19;;;-1.71;73.90
76297;BME280;65104;52.994;6.552;2022-12-18T13:07:02;102514.72;;;-1.63;72.68
76297;BME280;65104;52.994;6.552;2022-12-18T13:09:33;102503.91;;;-1.62;73.78
76297;BME280;65104;52.994;6.552;2022-12-18T13:12:04;102504.31;;;-1.58;72.63
76297;BME280;65104;52.994;6.552;2022-12-18T13:14:52;102508.06;;;-1.63;72.72
76297;BME280;65104;52.994;6.552;2022-12-18T13:17:27;102497.34;;;-1.60;72.89
76297;BME280;65104;52.994;6.552;2022-12-18T13:20:14;102503.44;;;-1.58;72.89
76297;BME280;65104;52.994;6.552;2022-12-18T13:25:31;102507.44;;;-1.60;72.46
76297;BME280;65104;52.994;6.552;2022-12-18T13:38:23;102480.47;;;-1.53;72.21
76297;BME280;65104;52.994;6.552;2022-12-18T13:48:32;102481.91;;;-1.46;70.83
76297;BME280;65104;52.994;6.552;2022-12-18T13:51:05;102462.50;;;-1.47;70.16
76297;BME280;65104;52.994;6.552;2022-12-18T13:56:20;102453.47;;;-1.45;70.67
76297;BME280;65104;52.994;6.552;2022-12-18T14:01:34;102452.97;;;-1.41;70.01
76297;BME280;65104;52.994;6.552;2022-12-18T14:04:10;102449.31;;;-1.44;69.48
76297;BME280;65104;52.994;6.552;2022-12-18T14:06:36;102436.81;;;-1.43;69.86
76297;BME280;65104;52.994;6.552;2022-12-18T14:09:02;102438.19;;;-1.46;70.04
76297;BME280;65104;52.994;6.552;2022-12-18T14:11:28;102438.66;;;-1.51;70.37
76297;BME280;65104;52.994;6.552;2022-12-18T14:13:54;102443.69;;;-1.51;70.21
76297;BME280;65104;52.994;6.552;2022-12-18T14:16:20;102442.69;;;-1.53;70.47
76297;BME280;65104;52.994;6.552;2022-12-18T14:18:50;102439.84;;;-1.47;70.25
76297;BME280;65104;52.994;6.552;2022-12-18T14:21:30;102440.44;;;-1.49;71.41
76297;BME280;65104;52.994;6.552;2022-12-18T14:24:20;102436.47;;;-1.56;71.25
76297;BME280;65104;52.994;6.552;2022-12-18T14:26:47;102438.69;;;-1.59;71.15
76297;BME280;65104;52.994;6.552;2022-12-18T14:32:06;102453.97;;;-1.66;72.44
76297;BME280;65104;52.994;6.552;2022-12-18T14:34:32;102447.91;;;-1.68;72.31
76297;BME280;65104;52.994;6.552;2022-12-18T14:36:57;102442.59;;;-1.71;71.78
76297;BME280;65104;52.994;6.552;2022-12-18T14:39:23;102437.28;;;-1.74;72.37
76297;BME280;65104;52.994;6.552;2022-12-18T14:41:50;102440.53;;;-1.75;72.69
76297;BME280;65104;52.994;6.552;2022-12-18T14:44:16;102432.69;;;-1.78;72.53
76297;BME280;65104;52.994;6.552;2022-12-18T14:46:43;102418.06;;;-1.82;73.54
76297;BME280;65104;52.994;6.552;2022-12-18T14:49:24;102429.91;;;-1.81;73.07
76297;BME280;65104;52.994;6.552;2022-12-18T14:51:55;102426.34;;;-1.83;74.24
76297;BME280;65104;52.994;6.552;2022-12-18T14:54:22;102415.72;;;-1.90;73.71
76297;BME280;65104;52.994;6.552;2022-12-18T14:56:51;102412.16;;;-1.92;73.85
76297;BME280;65104;52.994;6.552;2022-12-18T14:59:23;102408.31;;;-1.97;73.99